Uralsk, Kazakhstan
Current Conditions -  °F | °C
As of 5:30 AM on Tuesday 23 Dec 2014 (Local Time) from UARR Reporting Station
Clear Clear  
Wind Chill: 21°   Ceiling: Unl
Heat Index: 28°   Visibility: 4mi
Dew Point: 27°   Wind: 7mph
Humidity: 93%   Direction: 240°WSW
Pressure: 29.77"   Gusts: NA
Location:  51.22°N, 51.36°E
Report Text: UARR 230130Z 24003MPS 7000 ///073 M02/M03 Q1008 R22/190255NOSIG RMK QFE753/1004
Loading
Personal Weather Stations






























Interactive Weather Map New forecast layout! Learn more

10-Day Weather Forecast

Advertisements
Track Severe Weather on mobile